EDDC

Dresden Airport

Dresden, Germany
METAR EDDC 241120Z 30016G27KT 260V330 9999 BKN035CB 11/03 Q1025 NOSIG
Observed Flight Rules
Sep-24 @ 11:20 UTC (12 minutes ago) Visual Flight Rules
Wind Visibility Clouds
300° at 16 knots
 Gusting to 27 knots
10,000+ meters
  • Broken at 3,500' AGL
Temperatures Readings
Current 11°C / 52°F
Dewpoint 3°C / 37°F
Humidity 58%
Altimeter 30.27" Hg
Pressure 1025 hPa
Elevation 226
METAR EDDC 241120Z 30016G27KT 260V330 9999 BKN035CB 11/03 Q1025 NOSIG
Observed Flight Rules
Sep-24 @ 11:20 UTC
(12 minutes ago)
VFR
Wind Visibility
300° at 16 knots
 Gusting to 27 knots
10,000+ meters
Clouds
  • Broken at 3,500' AGL
Temperature Dewpoint
11°C / 52°F 3°C / 37°F
Humidity Altimeter Pressure
58% 30.27" Hg 1025 hPa